sensor_id;sensor_type;location;lat;lon;timestamp;P1;durP1;ratioP1;P2;durP2;ratioP2
17235;SDS011;8734;59.272;17.780;2023-04-06T00:00:45;10.90;;;4.73;;
17235;SDS011;8734;59.272;17.780;2023-04-06T00:03:13;8.97;;;4.73;;
17235;SDS011;8734;59.272;17.780;2023-04-06T00:05:42;17.53;;;4.40;;
17235;SDS011;8734;59.272;17.780;2023-04-06T00:08:10;14.07;;;4.20;;
17235;SDS011;8734;59.272;17.780;2023-04-06T00:10:39;7.17;;;3.93;;
17235;SDS011;8734;59.272;17.780;2023-04-06T00:13:07;7.67;;;4.27;;
17235;SDS011;8734;59.272;17.780;2023-04-06T00:15:36;10.73;;;4.80;;
17235;SDS011;8734;59.272;17.780;2023-04-06T00:18:06;16.07;;;4.30;;
17235;SDS011;8734;59.272;17.780;2023-04-06T00:20:34;10.53;;;5.23;;
17235;SDS011;8734;59.272;17.780;2023-04-06T00:23:03;11.43;;;4.90;;
17235;SDS011;8734;59.272;17.780;2023-04-06T00:25:31;13.50;;;4.80;;
17235;SDS011;8734;59.272;17.780;2023-04-06T00:28:00;7.53;;;3.87;;
17235;SDS011;8734;59.272;17.780;2023-04-06T00:30:29;14.13;;;4.83;;
17235;SDS011;8734;59.272;17.780;2023-04-06T00:32:58;10.33;;;4.70;;
17235;SDS011;8734;59.272;17.780;2023-04-06T00:35:28;13.13;;;4.47;;
17235;SDS011;8734;59.272;17.780;2023-04-06T00:37:56;8.70;;;4.50;;
17235;SDS011;8734;59.272;17.780;2023-04-06T00:40:25;15.07;;;4.60;;
17235;SDS011;8734;59.272;17.780;2023-04-06T00:42:54;8.57;;;4.07;;
17235;SDS011;8734;59.272;17.780;2023-04-06T00:45:23;12.27;;;4.97;;
17235;SDS011;8734;59.272;17.780;2023-04-06T00:47:51;11.37;;;4.80;;
17235;SDS011;8734;59.272;17.780;2023-04-06T00:50:20;18.27;;;5.10;;
17235;SDS011;8734;59.272;17.780;2023-04-06T00:52:49;10.27;;;4.63;;
17235;SDS011;8734;59.272;17.780;2023-04-06T00:55:18;14.30;;;4.40;;
17235;SDS011;8734;59.272;17.780;2023-04-06T00:57:47;15.07;;;4.37;;
17235;SDS011;8734;59.272;17.780;2023-04-06T01:00:17;12.57;;;5.10;;
17235;SDS011;8734;59.272;17.780;2023-04-06T01:02:45;13.40;;;4.70;;
17235;SDS011;8734;59.272;17.780;2023-04-06T01:05:14;11.87;;;4.67;;
17235;SDS011;8734;59.272;17.780;2023-04-06T01:07:43;17.70;;;5.17;;
17235;SDS011;8734;59.272;17.780;2023-04-06T01:10:21;12.57;;;4.87;;
17235;SDS011;8734;59.272;17.780;2023-04-06T01:12:50;13.30;;;5.07;;
17235;SDS011;8734;59.272;17.780;2023-04-06T01:15:19;11.17;;;4.67;;
17235;SDS011;8734;59.272;17.780;2023-04-06T01:17:48;10.87;;;4.60;;
17235;SDS011;8734;59.272;17.780;2023-04-06T01:20:17;13.60;;;4.13;;
17235;SDS011;8734;59.272;17.780;2023-04-06T01:22:47;14.57;;;4.97;;
17235;SDS011;8734;59.272;17.780;2023-04-06T01:25:15;11.73;;;5.43;;
17235;SDS011;8734;59.272;17.780;2023-04-06T01:27:44;13.67;;;4.77;;
17235;SDS011;8734;59.272;17.780;2023-04-06T01:30:12;18.33;;;5.53;;
17235;SDS011;8734;59.272;17.780;2023-04-06T01:32:40;10.57;;;5.37;;
17235;SDS011;8734;59.272;17.780;2023-04-06T01:35:09;13.80;;;5.23;;
17235;SDS011;8734;59.272;17.780;2023-04-06T01:37:37;12.03;;;5.37;;
17235;SDS011;8734;59.272;17.780;2023-04-06T01:40:08;11.17;;;4.73;;
17235;SDS011;8734;59.272;17.780;2023-04-06T01:42:37;8.93;;;4.97;;
17235;SDS011;8734;59.272;17.780;2023-04-06T01:45:06;15.23;;;5.70;;
17235;SDS011;8734;59.272;17.780;2023-04-06T01:47:35;12.00;;;5.83;;
17235;SDS011;8734;59.272;17.780;2023-04-06T01:50:04;11.53;;;5.27;;
17235;SDS011;8734;59.272;17.780;2023-04-06T01:52:33;15.30;;;5.40;;
17235;SDS011;8734;59.272;17.780;2023-04-06T01:55:01;11.37;;;5.40;;
17235;SDS011;8734;59.272;17.780;2023-04-06T01:57:32;17.43;;;6.20;;
17235;SDS011;8734;59.272;17.780;2023-04-06T02:00:01;18.90;;;6.03;;
17235;SDS011;8734;59.272;17.780;2023-04-06T02:02:29;12.20;;;5.10;;
17235;SDS011;8734;59.272;17.780;2023-04-06T02:04:58;10.87;;;5.07;;
17235;SDS011;8734;59.272;17.780;2023-04-06T02:07:26;12.53;;;5.70;;
17235;SDS011;8734;59.272;17.780;2023-04-06T02:09:55;13.10;;;5.47;;
17235;SDS011;8734;59.272;17.780;2023-04-06T02:12:23;14.33;;;6.33;;
17235;SDS011;8734;59.272;17.780;2023-04-06T02:14:53;10.60;;;5.57;;
17235;SDS011;8734;59.272;17.780;2023-04-06T02:17:21;11.97;;;5.47;;
17235;SDS011;8734;59.272;17.780;2023-04-06T02:19:50;15.10;;;5.40;;
17235;SDS011;8734;59.272;17.780;2023-04-06T02:22:19;12.00;;;5.90;;
17235;SDS011;8734;59.272;17.780;2023-04-06T02:24:47;14.33;;;5.60;;
17235;SDS011;8734;59.272;17.780;2023-04-06T02:27:16;16.90;;;6.77;;
17235;SDS011;8734;59.272;17.780;2023-04-06T02:29:44;10.93;;;5.60;;
17235;SDS011;8734;59.272;17.780;2023-04-06T02:32:14;15.30;;;6.03;;
17235;SDS011;8734;59.272;17.780;2023-04-06T02:34:43;15.17;;;6.27;;
17235;SDS011;8734;59.272;17.780;2023-04-06T02:37:11;14.13;;;5.77;;
17235;SDS011;8734;59.272;17.780;2023-04-06T02:39:40;13.47;;;5.90;;
17235;SDS011;8734;59.272;17.780;2023-04-06T02:42:09;12.10;;;5.80;;
17235;SDS011;8734;59.272;17.780;2023-04-06T02:44:38;12.53;;;6.37;;
17235;SDS011;8734;59.272;17.780;2023-04-06T02:47:06;15.57;;;6.33;;
17235;SDS011;8734;59.272;17.780;2023-04-06T02:49:36;19.00;;;6.30;;
17235;SDS011;8734;59.272;17.780;2023-04-06T02:52:05;13.77;;;5.83;;
17235;SDS011;8734;59.272;17.780;2023-04-06T02:54:33;15.37;;;5.67;;
17235;SDS011;8734;59.272;17.780;2023-04-06T02:57:02;17.30;;;6.13;;
17235;SDS011;8734;59.272;17.780;2023-04-06T02:59:31;14.30;;;5.77;;
17235;SDS011;8734;59.272;17.780;2023-04-06T03:01:59;16.27;;;6.13;;
17235;SDS011;8734;59.272;17.780;2023-04-06T03:04:28;16.73;;;6.00;;
17235;SDS011;8734;59.272;17.780;2023-04-06T03:06:58;17.60;;;6.57;;
17235;SDS011;8734;59.272;17.780;2023-04-06T03:09:27;14.63;;;5.80;;
17235;SDS011;8734;59.272;17.780;2023-04-06T03:11:55;16.97;;;6.70;;
17235;SDS011;8734;59.272;17.780;2023-04-06T03:14:24;10.63;;;5.37;;
17235;SDS011;8734;59.272;17.780;2023-04-06T03:16:52;12.60;;;6.00;;
17235;SDS011;8734;59.272;17.780;2023-04-06T03:19:21;13.27;;;5.97;;
17235;SDS011;8734;59.272;17.780;2023-04-06T03:21:49;12.30;;;5.80;;
17235;SDS011;8734;59.272;17.780;2023-04-06T03:24:19;12.17;;;5.63;;
17235;SDS011;8734;59.272;17.780;2023-04-06T03:26:47;14.53;;;5.63;;
17235;SDS011;8734;59.272;17.780;2023-04-06T03:29:16;12.87;;;6.57;;
17235;SDS011;8734;59.272;17.780;2023-04-06T03:31:44;17.57;;;6.00;;
17235;SDS011;8734;59.272;17.780;2023-04-06T03:34:13;15.73;;;6.80;;
17235;SDS011;8734;59.272;17.780;2023-04-06T03:36:42;12.00;;;5.53;;
17235;SDS011;8734;59.272;17.780;2023-04-06T03:39:10;12.67;;;6.40;;
17235;SDS011;8734;59.272;17.780;2023-04-06T03:41:40;13.63;;;6.30;;
17235;SDS011;8734;59.272;17.780;2023-04-06T03:44:08;11.40;;;5.30;;
17235;SDS011;8734;59.272;17.780;2023-04-06T03:46:37;11.63;;;5.60;;
17235;SDS011;8734;59.272;17.780;2023-04-06T03:49:05;19.07;;;6.20;;
17235;SDS011;8734;59.272;17.780;2023-04-06T03:51:34;15.33;;;6.77;;
17235;SDS011;8734;59.272;17.780;2023-04-06T03:54:03;22.70;;;6.90;;
17235;SDS011;8734;59.272;17.780;2023-04-06T03:56:32;14.13;;;6.80;;
17235;SDS011;8734;59.272;17.780;2023-04-06T03:59:02;15.87;;;6.80;;
17235;SDS011;8734;59.272;17.780;2023-04-06T04:01:30;20.57;;;6.77;;
17235;SDS011;8734;59.272;17.780;2023-04-06T04:03:59;15.07;;;6.30;;
17235;SDS011;8734;59.272;17.780;2023-04-06T04:06:28;25.47;;;6.60;;
17235;SDS011;8734;59.272;17.780;2023-04-06T04:08:56;17.20;;;5.70;;
17235;SDS011;8734;59.272;17.780;2023-04-06T04:11:24;13.80;;;5.80;;
17235;SDS011;8734;59.272;17.780;2023-04-06T04:13:53;14.67;;;7.43;;
17235;SDS011;8734;59.272;17.780;2023-04-06T04:16:23;17.17;;;6.47;;
17235;SDS011;8734;59.272;17.780;2023-04-06T04:18:51;16.30;;;7.20;;
17235;SDS011;8734;59.272;17.780;2023-04-06T04:21:20;11.87;;;6.07;;
17235;SDS011;8734;59.272;17.780;2023-04-06T04:23:49;18.17;;;6.50;;
17235;SDS011;8734;59.272;17.780;2023-04-06T04:26:17;15.67;;;6.23;;
17235;SDS011;8734;59.272;17.780;2023-04-06T04:28:46;14.73;;;5.23;;
17235;SDS011;8734;59.272;17.780;2023-04-06T04:31:14;16.13;;;6.70;;
17235;SDS011;8734;59.272;17.780;2023-04-06T04:33:46;14.30;;;5.97;;
17235;SDS011;8734;59.272;17.780;2023-04-06T04:36:14;16.60;;;6.70;;
17235;SDS011;8734;59.272;17.780;2023-04-06T04:38:43;17.07;;;6.20;;
17235;SDS011;8734;59.272;17.780;2023-04-06T04:41:11;25.17;;;6.53;;
17235;SDS011;8734;59.272;17.780;2023-04-06T04:43:40;18.90;;;6.40;;
17235;SDS011;8734;59.272;17.780;2023-04-06T04:46:08;17.07;;;6.70;;
17235;SDS011;8734;59.272;17.780;2023-04-06T04:48:37;15.73;;;6.30;;
17235;SDS011;8734;59.272;17.780;2023-04-06T04:51:08;18.00;;;6.00;;
17235;SDS011;8734;59.272;17.780;2023-04-06T04:53:36;15.43;;;5.67;;
17235;SDS011;8734;59.272;17.780;2023-04-06T04:56:05;11.30;;;5.97;;
17235;SDS011;8734;59.272;17.780;2023-04-06T04:58:34;15.07;;;5.97;;
17235;SDS011;8734;59.272;17.780;2023-04-06T05:01:02;13.90;;;5.20;;
17235;SDS011;8734;59.272;17.780;2023-04-06T05:03:32;10.50;;;5.53;;
17235;SDS011;8734;59.272;17.780;2023-04-06T05:06:01;12.07;;;5.30;;
17235;SDS011;8734;59.272;17.780;2023-04-06T05:08:31;10.03;;;5.23;;
17235;SDS011;8734;59.272;17.780;2023-04-06T05:10:59;9.87;;;5.13;;
17235;SDS011;8734;59.272;17.780;2023-04-06T05:13:29;10.80;;;4.87;;
17235;SDS011;8734;59.272;17.780;2023-04-06T05:15:57;10.73;;;4.47;;
17235;SDS011;8734;59.272;17.780;2023-04-06T05:18:26;10.07;;;4.30;;
17235;SDS011;8734;59.272;17.780;2023-04-06T05:20:55;8.80;;;5.00;;
17235;SDS011;8734;59.272;17.780;2023-04-06T05:23:23;7.67;;;4.47;;
17235;SDS011;8734;59.272;17.780;2023-04-06T05:25:53;8.30;;;4.37;;
17235;SDS011;8734;59.272;17.780;2023-04-06T05:28:22;13.90;;;5.07;;
17235;SDS011;8734;59.272;17.780;2023-04-06T05:30:50;9.03;;;4.97;;
17235;SDS011;8734;59.272;17.780;2023-04-06T05:33:19;17.60;;;5.23;;
17235;SDS011;8734;59.272;17.780;2023-04-06T05:35:47;11.90;;;4.90;;
17235;SDS011;8734;59.272;17.780;2023-04-06T05:38:16;10.40;;;4.27;;
17235;SDS011;8734;59.272;17.780;2023-04-06T05:40:44;9.60;;;4.40;;
17235;SDS011;8734;59.272;17.780;2023-04-06T05:43:14;9.70;;;4.10;;
17235;SDS011;8734;59.272;17.780;2023-04-06T05:45:43;9.33;;;4.40;;
17235;SDS011;8734;59.272;17.780;2023-04-06T05:48:12;7.43;;;4.57;;
17235;SDS011;8734;59.272;17.780;2023-04-06T05:50:41;10.63;;;5.10;;
17235;SDS011;8734;59.272;17.780;2023-04-06T05:53:10;17.00;;;4.60;;
17235;SDS011;8734;59.272;17.780;2023-04-06T05:55:39;7.50;;;4.27;;
17235;SDS011;8734;59.272;17.780;2023-04-06T05:58:09;9.83;;;4.10;;
17235;SDS011;8734;59.272;17.780;2023-04-06T06:00:38;12.87;;;4.60;;
17235;SDS011;8734;59.272;17.780;2023-04-06T06:03:09;9.30;;;4.53;;
17235;SDS011;8734;59.272;17.780;2023-04-06T06:05:37;11.50;;;4.37;;
17235;SDS011;8734;59.272;17.780;2023-04-06T06:08:06;10.23;;;4.37;;
17235;SDS011;8734;59.272;17.780;2023-04-06T06:10:35;19.53;;;5.00;;
17235;SDS011;8734;59.272;17.780;2023-04-06T06:13:05;10.67;;;4.00;;
17235;SDS011;8734;59.272;17.780;2023-04-06T06:15:34;10.60;;;4.20;;
17235;SDS011;8734;59.272;17.780;2023-04-06T06:18:04;9.77;;;4.03;;
17235;SDS011;8734;59.272;17.780;2023-04-06T06:20:33;7.27;;;4.07;;
17235;SDS011;8734;59.272;17.780;2023-04-06T06:23:01;7.73;;;3.67;;
17235;SDS011;8734;59.272;17.780;2023-04-06T06:25:31;8.60;;;3.90;;
17235;SDS011;8734;59.272;17.780;2023-04-06T06:28:00;8.43;;;3.93;;
17235;SDS011;8734;59.272;17.780;2023-04-06T06:30:28;11.93;;;4.77;;
17235;SDS011;8734;59.272;17.780;2023-04-06T06:32:57;7.97;;;4.07;;
17235;SDS011;8734;59.272;17.780;2023-04-06T06:35:27;7.37;;;3.70;;
17235;SDS011;8734;59.272;17.780;2023-04-06T06:37:55;5.20;;;3.20;;
17235;SDS011;8734;59.272;17.780;2023-04-06T06:40:24;10.50;;;4.00;;
17235;SDS011;8734;59.272;17.780;2023-04-06T06:42:53;10.77;;;3.47;;
17235;SDS011;8734;59.272;17.780;2023-04-06T06:45:22;7.00;;;3.33;;
17235;SDS011;8734;59.272;17.780;2023-04-06T06:47:52;4.10;;;2.73;;
17235;SDS011;8734;59.272;17.780;2023-04-06T06:50:21;6.70;;;3.23;;
17235;SDS011;8734;59.272;17.780;2023-04-06T06:52:51;6.37;;;3.10;;
17235;SDS011;8734;59.272;17.780;2023-04-06T06:55:20;3.90;;;2.90;;
17235;SDS011;8734;59.272;17.780;2023-04-06T06:57:48;7.80;;;3.50;;
17235;SDS011;8734;59.272;17.780;2023-04-06T07:00:17;6.27;;;2.90;;
17235;SDS011;8734;59.272;17.780;2023-04-06T07:02:47;7.20;;;3.20;;
17235;SDS011;8734;59.272;17.780;2023-04-06T07:05:17;5.60;;;3.10;;
17235;SDS011;8734;59.272;17.780;2023-04-06T07:07:55;8.43;;;3.07;;
17235;SDS011;8734;59.272;17.780;2023-04-06T07:10:24;4.50;;;2.93;;
17235;SDS011;8734;59.272;17.780;2023-04-06T07:12:52;4.33;;;2.90;;
17235;SDS011;8734;59.272;17.780;2023-04-06T07:15:21;4.67;;;2.50;;
17235;SDS011;8734;59.272;17.780;2023-04-06T07:17:49;3.93;;;2.87;;
17235;SDS011;8734;59.272;17.780;2023-04-06T07:20:18;9.03;;;3.67;;
17235;SDS011;8734;59.272;17.780;2023-04-06T07:22:47;5.30;;;3.00;;
17235;SDS011;8734;59.272;17.780;2023-04-06T07:25:17;4.90;;;2.73;;
17235;SDS011;8734;59.272;17.780;2023-04-06T07:27:48;7.67;;;3.03;;
17235;SDS011;8734;59.272;17.780;2023-04-06T07:30:17;5.83;;;2.57;;
17235;SDS011;8734;59.272;17.780;2023-04-06T07:32:46;9.60;;;3.53;;
17235;SDS011;8734;59.272;17.780;2023-04-06T07:35:15;6.17;;;3.37;;
17235;SDS011;8734;59.272;17.780;2023-04-06T07:37:43;3.53;;;2.60;;
17235;SDS011;8734;59.272;17.780;2023-04-06T07:40:12;8.23;;;3.30;;
17235;SDS011;8734;59.272;17.780;2023-04-06T07:42:41;4.53;;;2.83;;
17235;SDS011;8734;59.272;17.780;2023-04-06T07:45:10;5.93;;;2.70;;
17235;SDS011;8734;59.272;17.780;2023-04-06T07:47:39;4.57;;;3.00;;
17235;SDS011;8734;59.272;17.780;2023-04-06T07:50:08;4.77;;;2.80;;
17235;SDS011;8734;59.272;17.780;2023-04-06T07:52:38;6.17;;;3.07;;
17235;SDS011;8734;59.272;17.780;2023-04-06T07:55:06;6.80;;;3.23;;
17235;SDS011;8734;59.272;17.780;2023-04-06T07:57:35;4.43;;;2.57;;
17235;SDS011;8734;59.272;17.780;2023-04-06T08:00:06;7.27;;;3.20;;
17235;SDS011;8734;59.272;17.780;2023-04-06T08:02:36;4.37;;;2.60;;
17235;SDS011;8734;59.272;17.780;2023-04-06T08:05:05;6.60;;;3.53;;
17235;SDS011;8734;59.272;17.780;2023-04-06T08:07:34;7.07;;;3.00;;
17235;SDS011;8734;59.272;17.780;2023-04-06T08:10:03;8.70;;;3.07;;
17235;SDS011;8734;59.272;17.780;2023-04-06T08:12:32;6.73;;;2.63;;
17235;SDS011;8734;59.272;17.780;2023-04-06T08:15:02;5.17;;;2.87;;
17235;SDS011;8734;59.272;17.780;2023-04-06T08:17:32;5.17;;;2.40;;
17235;SDS011;8734;59.272;17.780;2023-04-06T08:20:01;4.10;;;2.70;;
17235;SDS011;8734;59.272;17.780;2023-04-06T08:22:30;4.87;;;2.60;;
17235;SDS011;8734;59.272;17.780;2023-04-06T08:24:59;5.60;;;2.63;;
17235;SDS011;8734;59.272;17.780;2023-04-06T08:27:27;4.50;;;2.70;;
17235;SDS011;8734;59.272;17.780;2023-04-06T08:29:56;5.73;;;2.60;;
17235;SDS011;8734;59.272;17.780;2023-04-06T08:32:24;4.73;;;2.60;;
17235;SDS011;8734;59.272;17.780;2023-04-06T08:34:54;5.90;;;2.80;;
17235;SDS011;8734;59.272;17.780;2023-04-06T08:37:23;4.40;;;2.37;;
17235;SDS011;8734;59.272;17.780;2023-04-06T08:39:51;5.77;;;2.30;;
17235;SDS011;8734;59.272;17.780;2023-04-06T08:42:21;3.87;;;2.20;;
17235;SDS011;8734;59.272;17.780;2023-04-06T08:44:52;4.67;;;2.37;;
17235;SDS011;8734;59.272;17.780;2023-04-06T08:47:22;2.83;;;2.10;;
17235;SDS011;8734;59.272;17.780;2023-04-06T08:49:51;9.10;;;2.27;;
17235;SDS011;8734;59.272;17.780;2023-04-06T08:52:22;3.20;;;2.10;;
17235;SDS011;8734;59.272;17.780;2023-04-06T08:54:52;5.43;;;2.37;;
17235;SDS011;8734;59.272;17.780;2023-04-06T08:57:21;7.23;;;2.20;;
17235;SDS011;8734;59.272;17.780;2023-04-06T08:59:49;3.40;;;2.17;;
17235;SDS011;8734;59.272;17.780;2023-04-06T09:02:19;11.20;;;2.50;;
17235;SDS011;8734;59.272;17.780;2023-04-06T09:04:48;2.73;;;1.90;;
17235;SDS011;8734;59.272;17.780;2023-04-06T09:07:20;3.20;;;1.97;;
17235;SDS011;8734;59.272;17.780;2023-04-06T09:09:50;3.10;;;2.07;;
17235;SDS011;8734;59.272;17.780;2023-04-06T09:12:22;5.00;;;2.40;;
17235;SDS011;8734;59.272;17.780;2023-04-06T09:14:51;3.33;;;1.97;;
17235;SDS011;8734;59.272;17.780;2023-04-06T09:17:20;7.67;;;2.20;;
17235;SDS011;8734;59.272;17.780;2023-04-06T09:19:49;4.37;;;2.27;;
17235;SDS011;8734;59.272;17.780;2023-04-06T09:22:18;2.70;;;2.03;;
17235;SDS011;8734;59.272;17.780;2023-04-06T09:24:48;3.20;;;1.97;;
17235;SDS011;8734;59.272;17.780;2023-04-06T09:27:29;4.53;;;2.20;;
17235;SDS011;8734;59.272;17.780;2023-04-06T09:30:02;5.53;;;2.07;;
17235;SDS011;8734;59.272;17.780;2023-04-06T09:32:33;3.30;;;1.90;;
17235;SDS011;8734;59.272;17.780;2023-04-06T09:35:13;2.93;;;2.00;;
17235;SDS011;8734;59.272;17.780;2023-04-06T09:37:42;4.50;;;1.97;;
17235;SDS011;8734;59.272;17.780;2023-04-06T09:40:13;2.57;;;1.80;;
17235;SDS011;8734;59.272;17.780;2023-04-06T09:42:45;3.47;;;1.90;;
17235;SDS011;8734;59.272;17.780;2023-04-06T09:45:14;3.63;;;1.83;;
17235;SDS011;8734;59.272;17.780;2023-04-06T09:47:43;4.00;;;1.90;;
17235;SDS011;8734;59.272;17.780;2023-04-06T09:50:13;3.13;;;1.80;;
17235;SDS011;8734;59.272;17.780;2023-04-06T09:52:44;3.23;;;1.53;;
17235;SDS011;8734;59.272;17.780;2023-04-06T09:55:20;3.80;;;1.93;;
17235;SDS011;8734;59.272;17.780;2023-04-06T09:57:57;5.30;;;1.93;;
17235;SDS011;8734;59.272;17.780;2023-04-06T10:00:32;2.73;;;1.60;;
17235;SDS011;8734;59.272;17.780;2023-04-06T10:03:08;3.80;;;1.70;;
17235;SDS011;8734;59.272;17.780;2023-04-06T10:05:46;4.70;;;1.70;;
17235;SDS011;8734;59.272;17.780;2023-04-06T10:08:19;2.57;;;1.70;;
17235;SDS011;8734;59.272;17.780;2023-04-06T10:10:53;2.83;;;1.87;;
17235;SDS011;8734;59.272;17.780;2023-04-06T10:13:22;2.83;;;1.70;;
17235;SDS011;8734;59.272;17.780;2023-04-06T10:15:52;3.37;;;2.23;;
17235;SDS011;8734;59.272;17.780;2023-04-06T10:18:22;1.93;;;1.60;;
17235;SDS011;8734;59.272;17.780;2023-04-06T10:20:51;8.83;;;1.73;;
17235;SDS011;8734;59.272;17.780;2023-04-06T10:23:25;4.10;;;1.90;;
17235;SDS011;8734;59.272;17.780;2023-04-06T10:26:03;5.80;;;1.90;;
17235;SDS011;8734;59.272;17.780;2023-04-06T10:28:33;4.20;;;1.90;;
17235;SDS011;8734;59.272;17.780;2023-04-06T10:31:05;5.33;;;1.80;;
17235;SDS011;8734;59.272;17.780;2023-04-06T10:33:33;4.57;;;1.60;;
17235;SDS011;8734;59.272;17.780;2023-04-06T10:36:11;3.77;;;1.77;;
17235;SDS011;8734;59.272;17.780;2023-04-06T10:38:41;3.03;;;1.90;;
17235;SDS011;8734;59.272;17.780;2023-04-06T10:41:11;3.77;;;1.63;;
17235;SDS011;8734;59.272;17.780;2023-04-06T10:43:40;4.00;;;1.77;;
17235;SDS011;8734;59.272;17.780;2023-04-06T10:46:09;2.60;;;1.77;;
17235;SDS011;8734;59.272;17.780;2023-04-06T10:48:38;3.17;;;1.73;;
17235;SDS011;8734;59.272;17.780;2023-04-06T10:51:08;6.60;;;1.90;;
17235;SDS011;8734;59.272;17.780;2023-04-06T10:53:37;3.83;;;1.83;;
17235;SDS011;8734;59.272;17.780;2023-04-06T10:56:09;2.50;;;1.70;;
17235;SDS011;8734;59.272;17.780;2023-04-06T10:58:43;3.53;;;1.60;;
17235;SDS011;8734;59.272;17.780;2023-04-06T11:01:14;8.03;;;1.70;;
17235;SDS011;8734;59.272;17.780;2023-04-06T11:03:44;2.77;;;1.67;;
17235;SDS011;8734;59.272;17.780;2023-04-06T11:06:19;2.73;;;1.60;;
17235;SDS011;8734;59.272;17.780;2023-04-06T11:08:49;4.97;;;1.60;;
17235;SDS011;8734;59.272;17.780;2023-04-06T11:11:19;2.90;;;1.70;;
17235;SDS011;8734;59.272;17.780;2023-04-06T11:13:50;3.27;;;1.80;;
17235;SDS011;8734;59.272;17.780;2023-04-06T11:16:20;3.73;;;1.77;;
17235;SDS011;8734;59.272;17.780;2023-04-06T11:18:50;4.97;;;1.90;;
17235;SDS011;8734;59.272;17.780;2023-04-06T11:21:30;5.90;;;2.40;;
17235;SDS011;8734;59.272;17.780;2023-04-06T11:24:06;4.00;;;2.03;;
17235;SDS011;8734;59.272;17.780;2023-04-06T11:26:41;2.53;;;1.60;;
17235;SDS011;8734;59.272;17.780;2023-04-06T11:29:11;4.10;;;1.50;;
17235;SDS011;8734;59.272;17.780;2023-04-06T11:31:41;3.07;;;1.50;;
17235;SDS011;8734;59.272;17.780;2023-04-06T11:34:15;6.70;;;1.53;;
17235;SDS011;8734;59.272;17.780;2023-04-06T11:36:45;4.57;;;1.97;;
17235;SDS011;8734;59.272;17.780;2023-04-06T11:39:17;6.93;;;2.10;;
17235;SDS011;8734;59.272;17.780;2023-04-06T11:41:48;2.23;;;1.77;;
17235;SDS011;8734;59.272;17.780;2023-04-06T11:44:28;2.70;;;1.40;;
17235;SDS011;8734;59.272;17.780;2023-04-06T11:47:00;5.20;;;1.50;;
17235;SDS011;8734;59.272;17.780;2023-04-06T11:49:28;6.10;;;1.77;;
17235;SDS011;8734;59.272;17.780;2023-04-06T11:51:57;2.13;;;1.60;;
17235;SDS011;8734;59.272;17.780;2023-04-06T11:54:29;2.60;;;1.70;;
17235;SDS011;8734;59.272;17.780;2023-04-06T11:57:01;2.43;;;1.50;;
17235;SDS011;8734;59.272;17.780;2023-04-06T11:59:30;1.57;;;1.37;;
17235;SDS011;8734;59.272;17.780;2023-04-06T12:02:00;5.60;;;1.73;;
17235;SDS011;8734;59.272;17.780;2023-04-06T12:04:29;2.20;;;1.43;;
17235;SDS011;8734;59.272;17.780;2023-04-06T12:06:58;3.27;;;1.50;;
17235;SDS011;8734;59.272;17.780;2023-04-06T12:09:26;3.97;;;1.20;;
17235;SDS011;8734;59.272;17.780;2023-04-06T12:11:55;2.93;;;1.37;;
17235;SDS011;8734;59.272;17.780;2023-04-06T12:14:25;4.17;;;2.03;;
17235;SDS011;8734;59.272;17.780;2023-04-06T12:16:53;3.77;;;1.80;;
17235;SDS011;8734;59.272;17.780;2023-04-06T12:19:21;3.63;;;1.70;;
17235;SDS011;8734;59.272;17.780;2023-04-06T12:21:52;2.63;;;1.90;;
17235;SDS011;8734;59.272;17.780;2023-04-06T12:24:21;4.33;;;1.60;;
17235;SDS011;8734;59.272;17.780;2023-04-06T12:26:49;4.17;;;1.90;;
17235;SDS011;8734;59.272;17.780;2023-04-06T12:29:29;2.90;;;1.60;;
17235;SDS011;8734;59.272;17.780;2023-04-06T12:31:58;3.70;;;1.57;;
17235;SDS011;8734;59.272;17.780;2023-04-06T12:34:28;1.93;;;1.60;;
17235;SDS011;8734;59.272;17.780;2023-04-06T12:36:57;5.23;;;1.90;;
17235;SDS011;8734;59.272;17.780;2023-04-06T12:39:26;1.87;;;1.40;;
17235;SDS011;8734;59.272;17.780;2023-04-06T12:41:55;2.70;;;1.10;;
17235;SDS011;8734;59.272;17.780;2023-04-06T12:44:24;2.10;;;1.40;;
17235;SDS011;8734;59.272;17.780;2023-04-06T12:46:54;2.40;;;1.13;;
17235;SDS011;8734;59.272;17.780;2023-04-06T12:49:22;2.00;;;1.33;;
17235;SDS011;8734;59.272;17.780;2023-04-06T12:51:51;2.40;;;1.53;;
17235;SDS011;8734;59.272;17.780;2023-04-06T12:54:19;3.27;;;1.50;;
17235;SDS011;8734;59.272;17.780;2023-04-06T12:56:48;4.30;;;1.87;;
17235;SDS011;8734;59.272;17.780;2023-04-06T12:59:16;2.90;;;1.50;;
17235;SDS011;8734;59.272;17.780;2023-04-06T13:01:45;3.27;;;1.70;;
17235;SDS011;8734;59.272;17.780;2023-04-06T13:04:15;1.97;;;1.57;;
17235;SDS011;8734;59.272;17.780;2023-04-06T13:06:43;6.90;;;1.53;;
17235;SDS011;8734;59.272;17.780;2023-04-06T13:09:12;2.53;;;1.60;;
17235;SDS011;8734;59.272;17.780;2023-04-06T13:11:41;3.10;;;1.80;;
17235;SDS011;8734;59.272;17.780;2023-04-06T13:14:09;2.60;;;1.80;;
17235;SDS011;8734;59.272;17.780;2023-04-06T13:16:37;3.30;;;1.90;;
17235;SDS011;8734;59.272;17.780;2023-04-06T13:19:06;4.10;;;2.03;;
17235;SDS011;8734;59.272;17.780;2023-04-06T13:21:36;3.30;;;1.30;;
17235;SDS011;8734;59.272;17.780;2023-04-06T13:24:05;2.50;;;1.63;;
17235;SDS011;8734;59.272;17.780;2023-04-06T13:26:33;2.80;;;1.67;;
17235;SDS011;8734;59.272;17.780;2023-04-06T13:29:02;4.10;;;2.00;;
17235;SDS011;8734;59.272;17.780;2023-04-06T13:31:30;3.17;;;1.57;;
17235;SDS011;8734;59.272;17.780;2023-04-06T13:33:59;4.73;;;1.90;;
17235;SDS011;8734;59.272;17.780;2023-04-06T13:36:27;6.80;;;2.20;;
17235;SDS011;8734;59.272;17.780;2023-04-06T13:38:58;4.33;;;2.20;;
17235;SDS011;8734;59.272;17.780;2023-04-06T13:41:27;6.73;;;2.20;;
17235;SDS011;8734;59.272;17.780;2023-04-06T13:43:55;3.90;;;1.80;;
17235;SDS011;8734;59.272;17.780;2023-04-06T13:46:24;4.23;;;2.00;;
17235;SDS011;8734;59.272;17.780;2023-04-06T13:48:54;2.13;;;1.70;;
17235;SDS011;8734;59.272;17.780;2023-04-06T13:51:23;3.63;;;1.60;;
17235;SDS011;8734;59.272;17.780;2023-04-06T13:53:52;4.20;;;1.80;;
17235;SDS011;8734;59.272;17.780;2023-04-06T13:56:23;9.43;;;1.90;;
17235;SDS011;8734;59.272;17.780;2023-04-06T13:58:53;2.60;;;1.90;;
17235;SDS011;8734;59.272;17.780;2023-04-06T14:01:22;4.33;;;2.07;;
17235;SDS011;8734;59.272;17.780;2023-04-06T14:03:53;3.17;;;1.90;;
17235;SDS011;8734;59.272;17.780;2023-04-06T14:06:22;6.07;;;2.47;;
17235;SDS011;8734;59.272;17.780;2023-04-06T14:08:57;4.10;;;2.33;;
17235;SDS011;8734;59.272;17.780;2023-04-06T14:11:27;5.43;;;2.10;;
17235;SDS011;8734;59.272;17.780;2023-04-06T14:13:56;5.07;;;2.17;;
17235;SDS011;8734;59.272;17.780;2023-04-06T14:16:24;6.13;;;2.10;;
17235;SDS011;8734;59.272;17.780;2023-04-06T14:18:53;5.10;;;2.17;;
17235;SDS011;8734;59.272;17.780;2023-04-06T14:21:21;8.33;;;2.07;;
17235;SDS011;8734;59.272;17.780;2023-04-06T14:23:49;8.23;;;1.83;;
17235;SDS011;8734;59.272;17.780;2023-04-06T14:26:18;7.50;;;2.50;;
17235;SDS011;8734;59.272;17.780;2023-04-06T14:28:48;8.20;;;2.63;;
17235;SDS011;8734;59.272;17.780;2023-04-06T14:31:17;6.63;;;2.17;;
17235;SDS011;8734;59.272;17.780;2023-04-06T14:33:45;4.93;;;1.80;;
17235;SDS011;8734;59.272;17.780;2023-04-06T14:36:14;9.73;;;2.00;;
17235;SDS011;8734;59.272;17.780;2023-04-06T14:38:43;6.37;;;2.27;;
17235;SDS011;8734;59.272;17.780;2023-04-06T14:41:15;10.47;;;2.47;;
17235;SDS011;8734;59.272;17.780;2023-04-06T14:43:45;3.70;;;2.10;;
17235;SDS011;8734;59.272;17.780;2023-04-06T14:46:15;8.83;;;2.53;;
17235;SDS011;8734;59.272;17.780;2023-04-06T14:48:44;4.90;;;2.27;;
17235;SDS011;8734;59.272;17.780;2023-04-06T14:51:13;4.37;;;2.07;;
17235;SDS011;8734;59.272;17.780;2023-04-06T14:53:41;2.27;;;2.00;;
17235;SDS011;8734;59.272;17.780;2023-04-06T14:56:10;7.37;;;2.20;;